Observation data for Dora on 05/26/2019      Previous  Date  Next       Current Mesonet Observations  Soil Data  Daily Summary Page  Observations in Plain Language
KDR1 260500Z 17016KT 19/16 A30 RMK A01 T01930161  RH  086%=      5-min Rain = 0
KDR1 260505Z 17015KT 19/16 A30 RMK A01 T01920160  RH  086%=      5-min Rain = 0
KDR1 260510Z 17015G20KT 19/16 A30 RMK A01 T01920160  RH  086%=      5-min Rain = 0
KDR1 260515Z 17014KT 19/16 A30 RMK A01 T01900159  RH  086%=      5-min Rain = 0
KDR1 260520Z 18016G21KT 19/16 A30 RMK A01 T01910157  RH  085%=      5-min Rain = 0
KDR1 260525Z 18017G22KT 19/16 A30 RMK A01 T01920156  RH  083%=      5-min Rain = 0
KDR1 260530Z 18017G22KT 19/15 A30 RMK A01 T01910154  RH  083%=      5-min Rain = 0
KDR1 260535Z 18016KT 19/15 A30 RMK A01 T01890153  RH  083%=      5-min Rain = 0
KDR1 260540Z 18015G20KT 19/15 A30 RMK A01 T01880153  RH  084%=      5-min Rain = 0
KDR1 260545Z 18015KT 19/15 A30 RMK A01 T01870152  RH  084%=      5-min Rain = 0
KDR1 260550Z 18015KT 19/15 A30 RMK A01 T01860151  RH  084%=      5-min Rain = 0
KDR1 260555Z 18013KT 18/15 A2999 RMK A01 T01840151  RH  084%=      5-min Rain = 0
KDR1 260600Z 18013KT 18/15 A2999 RMK A01 T01830150  RH  084%=      5-min Rain = 0
KDR1 260605Z 18013KT 18/15 A2999 RMK A01 T01820149  RH  084%=      5-min Rain = 0
KDR1 260610Z 19014G19KT 18/15 A2999 RMK A01 T01840147  RH  083%=      5-min Rain = 0
KDR1 260615Z 19016KT 18/15 A2999 RMK A01 T01830146  RH  082%=      5-min Rain = 0
KDR1 260620Z 19016KT 18/15 A30 RMK A01 T01830145  RH  082%=      5-min Rain = 0
KDR1 260625Z 19015KT 18/14 A30 RMK A01 T01820144  RH  082%=      5-min Rain = 0
KDR1 260630Z 19014KT 18/14 A30 RMK A01 T01810143  RH  082%=      5-min Rain = 0
KDR1 260635Z 19014KT 18/14 A30 RMK A01 T01800142  RH  082%=      5-min Rain = 0
KDR1 260640Z 19013KT 18/14 A30 RMK A01 T01780142  RH  083%=      5-min Rain = 0
KDR1 260645Z 19013KT 18/14 A30 RMK A01 T01780142  RH  083%=      5-min Rain = 0
KDR1 260650Z 19013KT 18/14 A30 RMK A01 T01780142  RH  083%=      5-min Rain = 0
KDR1 260655Z 19014KT 18/14 A30 RMK A01 T01780142  RH  083%=      5-min Rain = 0
KDR1 260700Z 19014KT 18/14 A30 RMK A01 T01780142  RH  083%=      5-min Rain = 0
KDR1 260705Z 19014KT 18/14 A2999 RMK A01 T01760142  RH  084%=      5-min Rain = 0
KDR1 260710Z 19013KT 18/14 A2999 RMK A01 T01760142  RH  084%=      5-min Rain = 0
KDR1 260715Z 19013KT 17/14 A2999 RMK A01 T01730142  RH  085%=      5-min Rain = 0
KDR1 260720Z 19012KT 17/14 A2999 RMK A01 T01710141  RH  086%=      5-min Rain = 0
KDR1 260725Z 19012KT 17/14 A2999 RMK A01 T01690141  RH  087%=      5-min Rain = 0
KDR1 260730Z 19012KT 17/14 A2999 RMK A01 T01690141  RH  087%=      5-min Rain = 0
KDR1 260735Z 19013KT 17/14 A2999 RMK A01 T01700141  RH  087%=      5-min Rain = 0
KDR1 260740Z 19012KT 17/14 A2999 RMK A01 T01690141  RH  087%=      5-min Rain = 0
KDR1 260745Z 19012KT 17/14 A2999 RMK A01 T01680141  RH  088%=      5-min Rain = 0
KDR1 260750Z 19012KT 17/14 A2999 RMK A01 T01670141  RH  088%=      5-min Rain = 0
KDR1 260755Z 19012KT 17/14 A2999 RMK A01 T01660141  RH  089%=      5-min Rain = 0
KDR1 260800Z 19012KT 17/14 A2999 RMK A01 T01670142  RH  089%=      5-min Rain = 0
KDR1 260805Z 19012KT 17/14 A2999 RMK A01 T01670142  RH  089%=      5-min Rain = 0
KDR1 260810Z 19012KT 17/14 A2999 RMK A01 T01680143  RH  089%=      5-min Rain = 0
KDR1 260815Z 19012KT 17/14 A2999 RMK A01 T01690143  RH  089%=      5-min Rain = 0
KDR1 260820Z 19013KT 17/14 A2999 RMK A01 T01690144  RH  089%=      5-min Rain = 0
KDR1 260825Z 19013KT 17/15 A2999 RMK A01 T01700145  RH  089%=      5-min Rain = 0
KDR1 260830Z 19012KT 17/15 A2998 RMK A01 T01700145  RH  089%=      5-min Rain = 0
KDR1 260835Z 19013KT 17/15 A2998 RMK A01 T01700145  RH  089%=      5-min Rain = 0
KDR1 260840Z 19013KT 17/15 A2998 RMK A01 T01690145  RH  090%=      5-min Rain = 0
KDR1 260845Z 19012KT 17/15 A2998 RMK A01 T01690146  RH  090%=      5-min Rain = 0
KDR1 260850Z 19012KT 17/15 A2998 RMK A01 T01700146  RH  090%=      5-min Rain = 0
KDR1 260855Z 19012KT 17/15 A2998 RMK A01 T01700147  RH  090%=      5-min Rain = 0
KDR1 260900Z 19013KT 17/15 A2998 RMK A01 T01700147  RH  090%=      5-min Rain = 0
KDR1 260905Z 19013KT 17/15 A2998 RMK A01 T01700148  RH  090%=      5-min Rain = 0
KDR1 260910Z 19013KT 17/15 A2999 RMK A01 T01700148  RH  091%=      5-min Rain = 0
KDR1 260915Z 19013KT 17/15 A2998 RMK A01 T01710149  RH  091%=      5-min Rain = 0
KDR1 260920Z 19012KT 17/15 A2998 RMK A01 T01700148  RH  091%=      5-min Rain = 0
KDR1 260925Z 18011KT 17/15 A2998 RMK A01 T01680147  RH  092%=      5-min Rain = 0
KDR1 260930Z 19011KT 17/15 A2999 RMK A01 T01670147  RH  092%=      5-min Rain = 0
KDR1 260935Z 18011KT 17/15 A2999 RMK A01 T01660146  RH  092%=      5-min Rain = 0
KDR1 260940Z 18011KT 17/15 A2999 RMK A01 T01660147  RH  092%=      5-min Rain = 0
KDR1 260945Z 18010KT 17/15 A2999 RMK A01 T01670148  RH  092%=      5-min Rain = 0
KDR1 260950Z 18010KT 17/15 A2998 RMK A01 T01670147  RH  092%=      5-min Rain = 0
KDR1 260955Z 17010KT 17/15 A2998 RMK A01 T01650146  RH  093%=      5-min Rain = 0
KDR1 261000Z 17010KT 16/15 A2998 RMK A01 T01640145  RH  093%=      5-min Rain = 0
KDR1 261005Z 17010KT 16/14 A2998 RMK A01 T01620144  RH  093%=      5-min Rain = 0
KDR1 261010Z 16010KT 16/14 A2998 RMK A01 T01610144  RH  094%=      5-min Rain = 0
KDR1 261015Z 16010KT 16/14 A2998 RMK A01 T01610144  RH  094%=      5-min Rain = 0
KDR1 261020Z 16010KT 16/15 A2998 RMK A01 T01620146  RH  094%=      5-min Rain = 0
KDR1 261025Z 16010KT 16/15 A2998 RMK A01 T01630146  RH  094%=      5-min Rain = 0
KDR1 261030Z 15011KT 16/15 A2998 RMK A01 T01640147  RH  094%=      5-min Rain = 0
KDR1 261035Z 15011KT 17/15 A2998 RMK A01 T01650149  RH  094%=      5-min Rain = 0
KDR1 261040Z 16011KT 16/15 A2998 RMK A01 T01640147  RH  094%=      5-min Rain = 0
KDR1 261045Z 16011G16KT 17/15 A2998 RMK A01 T01650148  RH  094%=      5-min Rain = 0
KDR1 261050Z 16012KT 17/15 A2998 RMK A01 T01690151  RH  094%=      5-min Rain = 0
KDR1 261055Z 15012KT 17/15 A2998 RMK A01 T01680150  RH  093%=      5-min Rain = 0
KDR1 261100Z 15012KT 17/15 A2998 RMK A01 T01660149  RH  094%=      5-min Rain = 0
KDR1 261105Z 15011KT 16/15 A2998 RMK A01 T01640148  RH  094%=      5-min Rain = 0
KDR1 261110Z 15012KT 16/15 A2998 RMK A01 T01640148  RH  094%=      5-min Rain = 0
KDR1 261115Z 15012KT 16/15 A2998 RMK A01 T01640148  RH  095%=      5-min Rain = 0
KDR1 261120Z 15012KT 17/15 A2999 RMK A01 T01650149  RH  095%=      5-min Rain = 0
KDR1 261125Z 14011KT 17/15 A2999 RMK A01 T01650149  RH  095%=      5-min Rain = 0
KDR1 261130Z 15011KT 17/15 A2999 RMK A01 T01660151  RH  095%=      5-min Rain = 0
KDR1 261135Z 15012KT 17/15 A2999 RMK A01 T01670152  RH  095%=      5-min Rain = 0
KDR1 261140Z 15012KT 17/15 A2999 RMK A01 T01690153  RH  094%=      5-min Rain = 0
KDR1 261145Z 15012KT 17/15 A2999 RMK A01 T01690153  RH  094%=      5-min Rain = 0
KDR1 261150Z 15013KT 17/15 A2999 RMK A01 T01700153  RH  094%=      5-min Rain = 0
KDR1 261155Z 15013KT 17/15 A2999 RMK A01 T01720154  RH  094%=      5-min Rain = 0
KDR1 261200Z 15012KT 17/15 A2999 RMK A01 T01720154  RH  093%=      5-min Rain = 0
KDR1 261205Z 15012KT 17/15 A30 RMK A01 T01710154  RH  093%=      5-min Rain = 0
KDR1 261210Z 15012KT 17/15 A30 RMK A01 T01710154  RH  094%=      5-min Rain = 0
KDR1 261215Z 15012KT 17/15 A30 RMK A01 T01700153  RH  094%=      5-min Rain = 0
KDR1 261220Z 15011KT 17/15 A30 RMK A01 T01700153  RH  094%=      5-min Rain = 0
KDR1 261225Z 15011KT 17/15 A2999 RMK A01 T01710154  RH  094%=      5-min Rain = 0
KDR1 261230Z 15012KT 17/15 A2999 RMK A01 T01710154  RH  094%=      5-min Rain = 0
KDR1 261235Z 15013KT 17/16 A2999 RMK A01 T01710155  RH  094%=      5-min Rain = 0
KDR1 261240Z 16013KT 17/16 A2999 RMK A01 T01710155  RH  094%=      5-min Rain = 0
KDR1 261245Z 16012KT 17/16 A30 RMK A01 T01720155  RH  094%=      5-min Rain = 0
KDR1 261250Z 16013KT 17/16 A30 RMK A01 T01720156  RH  095%=      5-min Rain = 0
KDR1 261255Z 16012KT 17/16 A30 RMK A01 T01730158  RH  095%=      5-min Rain = 0
KDR1 261300Z 15013KT 17/16 A30 RMK A01 T01740158  RH  094%=      5-min Rain = 0
KDR1 261305Z 15011KT 17/16 A3001 RMK A01 T01740157  RH  094%=      5-min Rain = 0
KDR1 261310Z 14010KT 17/16 A3001 RMK A01 T01740157  RH  094%=      5-min Rain = 0
KDR1 261315Z 14009KT 17/16 A3001 RMK A01 T01730157  RH  094%=      5-min Rain = 0
KDR1 261320Z 14010KT 17/16 A3001 RMK A01 T01730157  RH  094%=      5-min Rain = 0
KDR1 261325Z 15009KT 17/16 A3001 RMK A01 T01740158  RH  095%=      5-min Rain = 0
KDR1 261330Z 15010KT 18/16 A3001 RMK A01 T01750159  RH  095%=      5-min Rain = 0
KDR1 261335Z 16010KT 18/16 A3001 RMK A01 T01760160  RH  095%=      5-min Rain = 0
KDR1 261340Z 16010G15KT 18/16 A3002 RMK A01 T01770161  RH  095%=      5-min Rain = 0
KDR1 261345Z 16011KT 18/16 A3001 RMK A01 T01790163  RH  095%=      5-min Rain = 0
KDR1 261350Z 16011KT 18/16 A3001 RMK A01 T01810164  RH  094%=      5-min Rain = 0
KDR1 261355Z 16011KT 18/17 A3001 RMK A01 T01830165  RH  094%=      5-min Rain = 0
KDR1 261400Z 16010KT 18/17 A3002 RMK A01 T01830166  RH  094%=      5-min Rain = 0
KDR1 261405Z 15009KT 19/17 A3002 RMK A01 T01850166  RH  093%=      5-min Rain = 0
KDR1 261410Z 15008KT 19/17 A3002 RMK A01 T01850166  RH  093%=      5-min Rain = 0
KDR1 261415Z 15010KT 19/17 A3002 RMK A01 T01850166  RH  093%=      5-min Rain = 0
KDR1 261420Z 15008KT 19/17 A3003 RMK A01 T01850166  RH  093%=      5-min Rain = 0
KDR1 261425Z 16008KT 19/17 A3003 RMK A01 T01860166  RH  093%=      5-min Rain = 0
KDR1 261430Z 16008G13KT 19/17 A3003 RMK A01 T01870166  RH  092%=      5-min Rain = 0
KDR1 261435Z 17010KT 19/17 A3003 RMK A01 T01880167  RH  092%=      5-min Rain = 0
KDR1 261440Z 17010KT 19/17 A3003 RMK A01 T01900168  RH  091%=      5-min Rain = 0
KDR1 261445Z 16011KT 19/17 A3002 RMK A01 T01920168  RH  091%=      5-min Rain = 0
KDR1 261450Z 17010KT 19/17 A3002 RMK A01 T01920168  RH  090%=      5-min Rain = 0
KDR1 261455Z 17011KT 19/17 A3003 RMK A01 T01930168  RH  090%=      5-min Rain = 0
KDR1 261500Z 16010KT 20/17 A3002 RMK A01 T01950169  RH  089%=      5-min Rain = 0
KDR1 261505Z 17011KT 20/17 A3002 RMK A01 T01960169  RH  089%=      5-min Rain = 0
KDR1 261510Z 17011KT 20/17 A3002 RMK A01 T01960168  RH  088%=      5-min Rain = 0
KDR1 261515Z 17013KT 20/17 A3002 RMK A01 T01970168  RH  088%=      5-min Rain = 0
KDR1 261520Z 17014KT 20/17 A3002 RMK A01 T01990169  RH  087%=      5-min Rain = 0
KDR1 261525Z 17013KT 20/17 A3002 RMK A01 T02000168  RH  086%=      5-min Rain = 0
KDR1 261530Z 17013KT 20/17 A3002 RMK A01 T02000168  RH  086%=      5-min Rain = 0
KDR1 261535Z 17012KT 20/17 A3002 RMK A01 T02010168  RH  086%=      5-min Rain = 0
KDR1 261540Z 17012G17KT 20/17 A3003 RMK A01 T02020169  RH  085%=      5-min Rain = 0
KDR1 261545Z 18012KT 20/17 A3003 RMK A01 T02030168  RH  084%=      5-min Rain = 0
KDR1 261550Z 18012KT 21/17 A3003 RMK A01 T02060170  RH  084%=      5-min Rain = 0
KDR1 261555Z 17012KT 21/17 A3003 RMK A01 T02070170  RH  083%=      5-min Rain = 0
KDR1 261600Z 17013KT 21/17 A3003 RMK A01 T02070169  RH  083%=      5-min Rain = 0
KDR1 261605Z 18011KT 21/17 A3002 RMK A01 T02080169  RH  082%=      5-min Rain = 0
KDR1 261610Z 18012KT 21/17 A3002 RMK A01 T02110170  RH  081%=      5-min Rain = 0
KDR1 261615Z 18013KT 21/17 A3002 RMK A01 T02120169  RH  080%=      5-min Rain = 0
KDR1 261620Z 17012KT 21/17 A3002 RMK A01 T02110169  RH  081%=      5-min Rain = 0
KDR1 261625Z 17013KT 21/17 A3002 RMK A01 T02140169  RH  079%=      5-min Rain = 0
KDR1 261630Z 17013KT 22/17 A3002 RMK A01 T02160170  RH  079%=      5-min Rain = 0
KDR1 261635Z 17014KT 22/17 A3002 RMK A01 T02190170  RH  078%=      5-min Rain = 0
KDR1 261640Z 18014KT 22/17 A3002 RMK A01 T02180169  RH  077%=      5-min Rain = 0
KDR1 261645Z 18014KT 22/17 A3002 RMK A01 T02200169  RH  077%=      5-min Rain = 0
KDR1 261650Z 18014KT 22/17 A3002 RMK A01 T02220169  RH  075%=      5-min Rain = 0
KDR1 261655Z 17014KT 22/17 A3001 RMK A01 T02240167  RH  074%=      5-min Rain = 0
KDR1 261700Z 17014KT 22/17 A3001 RMK A01 T02230168  RH  075%=      5-min Rain = 0
KDR1 261705Z 18013G18KT 22/17 A3001 RMK A01 T02240167  RH  074%=      5-min Rain = 0
KDR1 261710Z 18013KT 23/17 A3001 RMK A01 T02260168  RH  073%=      5-min Rain = 0
KDR1 261715Z 18014KT 23/17 A3001 RMK A01 T02260167  RH  073%=      5-min Rain = 0
KDR1 261720Z 18013KT 23/17 A3001 RMK A01 T02260166  RH  072%=      5-min Rain = 0
KDR1 261725Z 17012G18KT 23/17 A30 RMK A01 T02290167  RH  072%=      5-min Rain = 0
KDR1 261730Z 17013KT 23/17 A3001 RMK A01 T02280165  RH  071%=      5-min Rain = 0
KDR1 261735Z 18016KT 22/17 A3002 RMK A01 T02240166  RH  073%=      5-min Rain = 0
KDR1 261740Z 17016KT 23/17 A3003 RMK A01 T02260167  RH  073%=      5-min Rain = 0
KDR1 261745Z 17018G24KT 23/17 A3002 RMK A01 T02280166  RH  071%=      5-min Rain = 0
KDR1 261750Z 16017G23KT 23/17 A3002 RMK A01 T02290168  RH  072%=      5-min Rain = 0
KDR1 261755Z 17016KT 23/17 A3001 RMK A01 T02310168  RH  071%=      5-min Rain = 0
KDR1 261800Z 17016KT 23/17 A3001 RMK A01 T02300166  RH  071%=      5-min Rain = 0
KDR1 261805Z 17015KT 23/17 A3001 RMK A01 T02300166  RH  071%=      5-min Rain = 0
KDR1 261810Z 17015KT 23/17 A3001 RMK A01 T02340168  RH  070%=      5-min Rain = 0
KDR1 261815Z 17018G23KT 24/17 A3001 RMK A01 T02350167  RH  069%=      5-min Rain = 0
KDR1 261820Z 17017KT 24/17 A3001 RMK A01 T02350166  RH  069%=      5-min Rain = 0
KDR1 261825Z 16018KT 23/17 A3001 RMK A01 T02330167  RH  069%=      5-min Rain = 0
KDR1 261830Z 16018G24KT 24/17 A3001 RMK A01 T02350168  RH  069%=      5-min Rain = 0
KDR1 261835Z 16019G24KT 23/17 A3002 RMK A01 T02330169  RH  070%=      5-min Rain = 0
KDR1 261840Z 16019KT 23/17 A3001 RMK A01 T02310167  RH  071%=      5-min Rain = 0
KDR1 261845Z 16017G24KT 23/17 A3001 RMK A01 T02320168  RH  071%=      5-min Rain = 0
KDR1 261850Z 16019G24KT 23/17 A3001 RMK A01 T02310166  RH  070%=      5-min Rain = 0
KDR1 261855Z 16017KT 23/17 A3001 RMK A01 T02320167  RH  070%=      5-min Rain = 0
KDR1 261900Z 16016KT 23/17 A30 RMK A01 T02300165  RH  070%=      5-min Rain = 0
KDR1 261905Z 16013G18KT 23/17 A30 RMK A01 T02310166  RH  070%=      5-min Rain = 0
KDR1 261910Z 15013KT 23/17 A2999 RMK A01 T02310165  RH  070%=      5-min Rain = 0
KDR1 261915Z 15014KT 23/17 A2999 RMK A01 T02310165  RH  070%=      5-min Rain = 0
KDR1 261920Z 16014KT 23/16 A2999 RMK A01 T02290163  RH  069%=      5-min Rain = 0
KDR1 261925Z 16016G23KT 23/16 A2999 RMK A01 T02310163  RH  069%=      5-min Rain = 0
KDR1 261930Z 15020G25KT 24/16 A30 RMK A01 T02350163  RH  067%=      5-min Rain = 0
KDR1 261935Z 15020G25KT 24/16 A2999 RMK A01 T02390157  RH  063%=      5-min Rain = 0
KDR1 261940Z 15023KT 24/17 A30 RMK A01 T02360166  RH  068%=      5-min Rain = 0
KDR1 261945Z 15021G27KT 23/17 A2999 RMK A01 T02320168  RH  071%=      5-min Rain = 0
KDR1 261950Z 15020G27KT 23/17 A2999 RMK A01 T02330169  RH  071%=      5-min Rain = 0
KDR1 261955Z 15020KT 23/17 A2998 RMK A01 T02320166  RH  070%=      5-min Rain = 0
KDR1 262000Z 15021KT 23/16 A2998 RMK A01 T02310163  RH  069%=      5-min Rain = 0
KDR1 262005Z 16018KT 23/16 A2997 RMK A01 T02330162  RH  068%=      5-min Rain = 0
KDR1 262010Z 15015G20KT 24/16 A2997 RMK A01 T02350162  RH  066%=      5-min Rain = 0
KDR1 262015Z 17017KT 24/15 A2997 RMK A01 T02380154  RH  062%=      5-min Rain = 0
KDR1 262020Z 16016KT 24/15 A2996 RMK A01 T02390152  RH  061%=      5-min Rain = 0
KDR1 262025Z 16014KT 25/16 A2996 RMK A01 T02450155  RH  060%=      5-min Rain = 0
KDR1 262030Z 17015G20KT 25/16 A2996 RMK A01 T02540155  RH  057%=      5-min Rain = 0
KDR1 262035Z 16017KT 26/15 A2995 RMK A01 T02570148  RH  053%=      5-min Rain = 0
KDR1 262040Z 16016KT 26/15 A2994 RMK A01 T02610146  RH  051%=      5-min Rain = 0
KDR1 262045Z 16018G23KT 27/14 A2994 RMK A01 T02700139  RH  046%=      5-min Rain = 0
KDR1 262050Z 16018KT 27/13 A2994 RMK A01 T02730133  RH  044%=      5-min Rain = 0
KDR1 262055Z 16018KT 28/12 A2994 RMK A01 T02780120  RH  039%=      5-min Rain = 0
KDR1 262100Z 16019G24KT 28/10 A2993 RMK A01 T02800104  RH  035%=      5-min Rain = 0
KDR1 262105Z 17018G23KT 28/09 A2993 RMK A01 T02840091  RH  031%=      5-min Rain = 0
KDR1 262110Z 16018G24KT 28/09 A2992 RMK A01 T02830086  RH  030%=      5-min Rain = 0
KDR1 262115Z 17017G23KT 29/08 A2992 RMK A01 T02860075  RH  027%=      5-min Rain = 0
KDR1 262120Z 16018G23KT 29/08 A2991 RMK A01 T02860081  RH  029%=      5-min Rain = 0
KDR1 262125Z 17018G25KT 29/07 A2991 RMK A01 T02860073  RH  027%=      5-min Rain = 0
KDR1 262130Z 16020G26KT 29/09 A2991 RMK A01 T02870091  RH  030%=      5-min Rain = 0
KDR1 262135Z 15018G24KT 29/09 A2991 RMK A01 T02860088  RH  030%=      5-min Rain = 0
KDR1 262140Z 15018G25KT 29/11 A2991 RMK A01 T02860113  RH  036%=      5-min Rain = 0
KDR1 262145Z 16019G25KT 28/12 A2991 RMK A01 T02820120  RH  038%=      5-min Rain = 0
KDR1 262150Z 17020G25KT 28/10 A2991 RMK A01 T02810096  RH  033%=      5-min Rain = 0
KDR1 262155Z 16019KT 28/11 A2991 RMK A01 T02820108  RH  035%=      5-min Rain = 0
KDR1 262200Z 16019G25KT 28/11 A2991 RMK A01 T02820113  RH  036%=      5-min Rain = 0
KDR1 262205Z 16019G25KT 28/12 A2991 RMK A01 T02820120  RH  038%=      5-min Rain = 0
KDR1 262210Z 16019G25KT 28/10 A299 RMK A01 T02820101  RH  033%=      5-min Rain = 0
KDR1 262215Z 16020KT 28/12 A299 RMK A01 T02790120  RH  039%=      5-min Rain = 0
KDR1 262220Z 16020G25KT 28/12 A299 RMK A01 T02800122  RH  039%=      5-min Rain = 0
KDR1 262225Z 16021G27KT 28/11 A299 RMK A01 T02780111  RH  036%=      5-min Rain = 0
KDR1 262230Z 15022KT 28/12 A299 RMK A01 T02780120  RH  039%=      5-min Rain = 0
KDR1 262235Z 16022G30KT 28/13 A299 RMK A01 T02760134  RH  043%=      5-min Rain = 0
KDR1 262240Z 16023G28KT 27/13 A2989 RMK A01 T02720129  RH  043%=      5-min Rain = 0
KDR1 262245Z 16022G28KT 27/14 A2989 RMK A01 T02690140  RH  047%=      5-min Rain = 0
KDR1 262250Z 16022G28KT 27/13 A2989 RMK A01 T02690131  RH  044%=      5-min Rain = 0
KDR1 262255Z 16021G29KT 27/14 A2989 RMK A01 T02700139  RH  046%=      5-min Rain = 0
KDR1 262300Z 15022G28KT 27/14 A2988 RMK A01 T02710140  RH  047%=      5-min Rain = 0
KDR1 262305Z 16025G32KT 27/13 A2988 RMK A01 T02650130  RH  045%=      5-min Rain = 0
KDR1 262310Z 16026G31KT 26/14 A2988 RMK A01 T02570136  RH  049%=      5-min Rain = 0
KDR1 262315Z 16026KT 26/14 A2988 RMK A01 T02570142  RH  051%=      5-min Rain = 0
KDR1 262320Z 15026G33KT 26/14 A2987 RMK A01 T02580142  RH  051%=      5-min Rain = 0
KDR1 262325Z 16025G32KT 25/15 A2987 RMK A01 T02520145  RH  054%=      5-min Rain = 0
KDR1 262330Z 15024G31KT 25/15 A2986 RMK A01 T02490149  RH  056%=      5-min Rain = 0
KDR1 262335Z 15028G33KT 25/15 A2985 RMK A01 T02460146  RH  056%=      5-min Rain = 0
KDR1 262340Z 15026G32KT 24/14 A2984 RMK A01 T02440142  RH  055%=      5-min Rain = 0
KDR1 262345Z 15026G33KT 24/14 A2983 RMK A01 T02440142  RH  055%=      5-min Rain = 0
KDR1 262350Z 15026G32KT 24/15 A2983 RMK A01 T02410147  RH  058%=      5-min Rain = 0
KDR1 262355Z 15025G31KT 24/14 A2983 RMK A01 T02400143  RH  057%=      5-min Rain = 0
KDR1 270000Z 15022G29KT 24/15 A2983 RMK A01 T02390147  RH  059%=      5-min Rain = 0
KDR1 270005Z 16018KT 24/15 A2984 RMK A01 T02370149  RH  060%=      5-min Rain = 0
KDR1 270010Z 16021G26KT 24/15 A2984 RMK A01 T02370147  RH  060%=      5-min Rain = 0
KDR1 270015Z 16021G26KT 24/15 A2985 RMK A01 T02370148  RH  060%=      5-min Rain = 0
KDR1 270020Z 15021G28KT 24/15 A2983 RMK A01 T02360150  RH  061%=      5-min Rain = 0
KDR1 270025Z 15020G27KT 23/16 A2983 RMK A01 T02330156  RH  065%=      5-min Rain = 0
KDR1 270030Z 15020G26KT 23/16 A2984 RMK A01 T02310159  RH  067%=      5-min Rain = 0
KDR1 270035Z 15020G27KT 23/16 A2985 RMK A01 T02280160  RH  069%=      5-min Rain = 0
KDR1 270040Z 16022G28KT 22/16 A2987 RMK A01 T02230163  RH  072%=      5-min Rain = 0
KDR1 270045Z 16021G31KT 21/17 A2989 RMK A01 T02130169  RH  080%=      5-min Rain = 0.02
KDR1 270050Z 15018G23KT 21/17 A2987 RMK A01 T02050172  RH  086%=      5-min Rain = 0.06
KDR1 270055Z 15013KT 20/17 A2987 RMK A01 T02020173  RH  088%=      5-min Rain = 0.04
KDR1 270100Z 14013G20KT 20/17 A2985 RMK A01 T02000172  RH  088%=      5-min Rain = 0.01
KDR1 270105Z 15015KT 20/17 A2985 RMK A01 T01990169  RH  087%=      5-min Rain = 0
KDR1 270110Z 10010G15KT 20/17 A2983 RMK A01 T01970169  RH  088%=      5-min Rain = 0.02
KDR1 270115Z 14007KT 20/17 A2985 RMK A01 T01970168  RH  088%=      5-min Rain = 0
KDR1 270120Z 10003KT 20/17 A2986 RMK A01 T01960168  RH  088%=      5-min Rain = 0.05
KDR1 270125Z 34010G21KT 19/16 A2986 RMK A01 T01910163  RH  088%=      5-min Rain = 0.06
KDR1 270130Z 32027G38KT 18/16 A2987 RMK A01 T01820156  RH  089%=      5-min Rain = 0.01
KDR1 270135Z 30021G38KT 17/15 A2992 RMK A01 T01660148  RH  093%=      5-min Rain = 0.02
KDR1 270140Z 35009G14KT 17/15 A2991 RMK A01 T01690152  RH  094%=      5-min Rain = 0
KDR1 270145Z 21010G17KT 19/16 A2991 RMK A01 T01920160  RH  086%=      5-min Rain = 0
KDR1 270150Z 15015G23KT 21/16 A2991 RMK A01 T02130163  RH  076%=      5-min Rain = 0
KDR1 270155Z 14008G16KT 21/16 A299 RMK A01 T02070162  RH  079%=      5-min Rain = 0
KDR1 270200Z 15007KT 21/16 A2989 RMK A01 T02080162  RH  079%=      5-min Rain = 0
KDR1 270205Z 15009KT 21/16 A2989 RMK A01 T02090164  RH  079%=      5-min Rain = 0
KDR1 270210Z 15011KT 21/17 A2988 RMK A01 T02100166  RH  080%=      5-min Rain = 0
KDR1 270215Z 15009G15KT 21/17 A2988 RMK A01 T02080166  RH  081%=      5-min Rain = 0
KDR1 270220Z 15010KT 21/17 A2988 RMK A01 T02080167  RH  082%=      5-min Rain = 0
KDR1 270225Z 15010KT 21/17 A2988 RMK A01 T02070167  RH  082%=      5-min Rain = 0
KDR1 270230Z 15010KT 21/17 A2988 RMK A01 T02060167  RH  082%=      5-min Rain = 0
KDR1 270235Z 15010G16KT 21/17 A2988 RMK A01 T02060168  RH  083%=      5-min Rain = 0
KDR1 270240Z 15011KT 21/17 A2988 RMK A01 T02070169  RH  083%=      5-min Rain = 0
KDR1 270245Z 15013G18KT 21/17 A2988 RMK A01 T02050169  RH  084%=      5-min Rain = 0
KDR1 270250Z 15016G22KT 21/17 A2988 RMK A01 T02060169  RH  083%=      5-min Rain = 0
KDR1 270255Z 16015KT 21/17 A2989 RMK A01 T02060169  RH  083%=      5-min Rain = 0
KDR1 270300Z 16016G21KT 21/17 A2989 RMK A01 T02050170  RH  084%=      5-min Rain = 0
KDR1 270305Z 16018G23KT 21/17 A2989 RMK A01 T02060170  RH  084%=      5-min Rain = 0
KDR1 270310Z 16017G22KT 21/17 A299 RMK A01 T02060170  RH  084%=      5-min Rain = 0
KDR1 270315Z 16017KT 21/17 A299 RMK A01 T02050170  RH  084%=      5-min Rain = 0
KDR1 270320Z 16017G23KT 21/17 A2991 RMK A01 T02050170  RH  085%=      5-min Rain = 0
KDR1 270325Z 16021KT 21/17 A2991 RMK A01 T02060170  RH  084%=      5-min Rain = 0
KDR1 270330Z 17018KT 21/17 A2992 RMK A01 T02060170  RH  084%=      5-min Rain = 0
KDR1 270335Z 18015KT 21/17 A2993 RMK A01 T02050171  RH  085%=      5-min Rain = 0
KDR1 270340Z 17016G22KT 21/17 A2992 RMK A01 T02070171  RH  084%=      5-min Rain = 0
KDR1 270345Z 17016KT 21/17 A2992 RMK A01 T02050170  RH  085%=      5-min Rain = 0
KDR1 270350Z 17017KT 20/17 A2992 RMK A01 T02040170  RH  085%=      5-min Rain = 0
KDR1 270355Z 17017G22KT 20/17 A2993 RMK A01 T02040170  RH  085%=      5-min Rain = 0
KDR1 270400Z 17015G20KT 20/17 A2993 RMK A01 T02040169  RH  085%=      5-min Rain = 0
KDR1 270405Z 17014KT 20/17 A2993 RMK A01 T02030169  RH  085%=      5-min Rain = 0
KDR1 270410Z 17015KT 20/17 A2993 RMK A01 T02020169  RH  085%=      5-min Rain = 0
KDR1 270415Z 18015G20KT 20/17 A2994 RMK A01 T02020169  RH  085%=      5-min Rain = 0
KDR1 270420Z 17015G20KT 20/17 A2994 RMK A01 T02020168  RH  085%=      5-min Rain = 0
KDR1 270425Z 18014G19KT 20/17 A2994 RMK A01 T02010168  RH  085%=      5-min Rain = 0
KDR1 270430Z 18013G19KT 20/17 A2994 RMK A01 T02000167  RH  085%=      5-min Rain = 0
KDR1 270435Z 18016G21KT 20/17 A2994 RMK A01 T02010166  RH  084%=      5-min Rain = 0
KDR1 270440Z 18016G21KT 20/17 A2994 RMK A01 T02000165  RH  084%=      5-min Rain = 0
KDR1 270445Z 18015KT 20/16 A2994 RMK A01 T01980164  RH  085%=      5-min Rain = 0
KDR1 270450Z 18015G21KT 20/16 A2994 RMK A01 T01970163  RH  085%=      5-min Rain = 0
KDR1 270455Z 18016KT 20/16 A2994 RMK A01 T01970163  RH  085%=      5-min Rain = 0

Page generated in 0.0091 seconds.